Main page
METAR-TAF:

Airports :

Frankfurt, Germany

Frankfurt Airport

latitude: 50-03N, longitude: 008-36E, elevation: 111 m

Current weather observation

The report was made 40 minutes ago, at 22:50 UTC
Wind 3 kt from the Southwest
Temperature 19°C
Humidity 88%
Pressure 1013 hPa
Visibility 10 km or more
Few clouds at a height of 4200 ft
Broken clouds at a height of 8500 ft

METAR: EDDF 292250Z 22003KT 9999 FEW042 BKN085 19/17 Q1013 NOSIG

Time: 01:30 (23:30 UTC)

Forecast

The report was made 6 hours and 30 minutes ago, at 17:00 UTC
Forecast valid from 29 at 18 UTC to 30 at 24 UTC
Wind 11 kt from the Southwest
Visibility 10 km or more
Scattered clouds at a height of 4500 ft
Becoming
from 29 at 20 UTC to 29 at 22 UTC
Wind 4 kt from the South/Southwest
Becoming
from 30 at 07 UTC to 30 at 09 UTC
Wind 9 kt from the West/Southwest
Becoming
from 30 at 17 UTC to 30 at 19 UTC
Wind 4 kt from the West

TAF: EDDF 291700Z 2918/3024 22011KT 9999 SCT045 BECMG 2920/2922 21004KT BECMG 3007/3009 24009KT BECMG 3017/3019 28004KT

METAR-TAF

Weather observations and forecasts of more than 4000 airports (METAR and TAF reports).

The available stations are represented by yellow and red dots on the map.

Hover mouse over dot to see the name of the station.

Then click to see weather observations and forecasts.

To change the map : click on the green buttons with a black cross to zoom in, on the green button with a dash to zoom out, or on the green arrows for adjacent maps.


METAR-TAF: